createdAt,value
2023-05-02T00:02:15.085Z,4.70
2023-05-02T00:26:34.536Z,4.40
2023-05-02T00:29:21.388Z,3.90
2023-05-02T00:37:04.828Z,7.30
2023-05-02T00:40:08.305Z,4.40
2023-05-02T00:42:55.291Z,4.00
2023-05-02T00:45:49.189Z,4.10
2023-05-02T00:48:37.822Z,4.20
2023-05-02T00:51:24.927Z,3.90
2023-05-02T00:54:13.681Z,4.40
2023-05-02T00:57:00.573Z,4.10
2023-05-02T01:02:58.752Z,3.70
2023-05-02T01:06:00.005Z,4.20
2023-05-02T01:09:00.910Z,4.80
2023-05-02T01:12:11.186Z,5.40
2023-05-02T01:14:59.780Z,4.90
2023-05-02T01:17:49.723Z,4.70
2023-05-02T01:20:41.312Z,4.90
2023-05-02T01:24:05.727Z,4.60
2023-05-02T01:27:36.698Z,4.80
2023-05-02T01:30:28.765Z,4.70
2023-05-02T01:33:18.511Z,4.30
2023-05-02T01:36:07.647Z,4.90
2023-05-02T01:38:57.103Z,4.70
2023-05-02T01:41:45.247Z,4.10
2023-05-02T01:44:34.443Z,4.60
2023-05-02T01:47:24.443Z,4.10
2023-05-02T01:50:16.983Z,4.30
2023-05-02T01:53:05.134Z,4.30
2023-05-02T01:55:54.204Z,4.20
2023-05-02T01:58:42.176Z,4.40
2023-05-02T02:01:31.372Z,4.30
2023-05-02T02:04:22.321Z,4.00
2023-05-02T02:07:13.146Z,4.00
2023-05-02T02:10:00.888Z,3.00
2023-05-02T02:13:26.261Z,16.50
2023-05-02T02:16:19.554Z,3.60
2023-05-02T02:19:13.295Z,5.30
2023-05-02T02:22:01.115Z,4.40
2023-05-02T02:24:48.682Z,4.30
2023-05-02T02:27:37.481Z,4.20
2023-05-02T02:30:24.393Z,16.60
2023-05-02T02:36:25.125Z,3.80
2023-05-02T02:39:31.236Z,4.80
2023-05-02T02:42:40.226Z,4.20
2023-05-02T02:45:41.006Z,4.70
2023-05-02T02:49:15.605Z,3.40
2023-05-02T02:52:05.338Z,3.30
2023-05-02T02:54:59.748Z,5.80
2023-05-02T02:58:02.629Z,4.20
2023-05-02T03:00:50.521Z,4.50
2023-05-02T03:03:40.029Z,3.50
2023-05-02T03:06:27.565Z,3.80
2023-05-02T03:09:18.811Z,3.90
2023-05-02T03:12:06.370Z,5.30
2023-05-02T03:15:02.959Z,4.80
2023-05-02T03:17:50.037Z,4.60
2023-05-02T03:20:36.921Z,4.20
2023-05-02T03:23:24.999Z,5.10
2023-05-02T03:26:11.929Z,4.20
2023-05-02T03:29:00.301Z,4.50
2023-05-02T03:31:51.176Z,3.70
2023-05-02T03:34:39.028Z,4.00
2023-05-02T03:37:26.036Z,4.00
2023-05-02T03:40:16.110Z,3.90
2023-05-02T03:43:04.334Z,4.60
2023-05-02T03:45:51.936Z,3.60
2023-05-02T03:48:39.518Z,3.50
2023-05-02T03:51:27.069Z,3.70
2023-05-02T03:54:14.589Z,3.20
2023-05-02T03:57:04.897Z,3.30
2023-05-02T03:59:52.428Z,3.40
2023-05-02T04:02:43.808Z,2.80
2023-05-02T04:05:33.831Z,3.20
2023-05-02T04:08:21.440Z,3.20
2023-05-02T04:11:08.769Z,2.40
2023-05-02T04:13:55.728Z,2.90
2023-05-02T04:16:48.468Z,2.60
2023-05-02T04:19:36.037Z,2.00
2023-05-02T04:22:23.430Z,3.30
2023-05-02T04:25:14.214Z,2.30
2023-05-02T04:28:03.759Z,3.30
2023-05-02T04:30:51.142Z,4.30
2023-05-02T04:33:43.380Z,4.00
2023-05-02T04:36:31.960Z,6.60
2023-05-02T04:39:18.966Z,6.80
2023-05-02T04:42:15.351Z,6.40
2023-05-02T04:45:10.294Z,2.70
2023-05-02T04:47:57.831Z,5.90
2023-05-02T04:50:46.414Z,4.10
2023-05-02T04:53:33.655Z,2.60
2023-05-02T04:56:22.877Z,2.50
2023-05-02T04:59:12.210Z,2.40
2023-05-02T05:01:59.748Z,4.60
2023-05-02T05:04:48.381Z,3.10
2023-05-02T05:07:38.293Z,2.40
2023-05-02T05:10:26.052Z,2.40
2023-05-02T05:13:14.048Z,2.10
2023-05-02T05:16:10.679Z,1.60
2023-05-02T05:19:16.291Z,1.60
2023-05-02T05:22:03.327Z,2.30
2023-05-02T05:24:57.479Z,1.50
2023-05-02T05:27:52.993Z,1.40
2023-05-02T05:30:46.090Z,1.30
2023-05-02T05:33:39.398Z,1.80
2023-05-02T05:36:31.782Z,2.40
2023-05-02T05:39:18.570Z,2.10
2023-05-02T05:42:10.256Z,1.50
2023-05-02T05:53:06.662Z,1.90
2023-05-02T05:55:55.017Z,1.50
2023-05-02T05:58:45.392Z,1.90
2023-05-02T06:01:34.472Z,1.00
2023-05-02T06:04:23.038Z,2.00
2023-05-02T06:07:13.749Z,2.40
2023-05-02T06:10:01.094Z,2.00
2023-05-02T06:12:49.744Z,1.10
2023-05-02T06:15:38.581Z,1.00
2023-05-02T06:18:26.596Z,1.50
2023-05-02T06:21:14.586Z,1.20
2023-05-02T06:24:01.649Z,1.30
2023-05-02T06:26:48.713Z,1.40
2023-05-02T06:29:35.836Z,2.20
2023-05-02T06:32:22.896Z,2.60
2023-05-02T06:35:12.267Z,1.40
2023-05-02T06:37:58.932Z,1.20
2023-05-02T06:40:45.652Z,1.80
2023-05-02T06:43:33.985Z,1.20
2023-05-02T06:46:21.240Z,1.30
2023-05-02T06:49:09.736Z,1.30
2023-05-02T06:51:56.799Z,1.60
2023-05-02T06:54:44.850Z,1.40
2023-05-02T06:57:31.653Z,2.50
2023-05-02T07:00:22.967Z,1.40
2023-05-02T07:03:11.471Z,1.50
2023-05-02T07:05:58.767Z,1.50
2023-05-02T07:08:46.169Z,1.30
2023-05-02T07:11:33.968Z,1.70
2023-05-02T07:14:22.339Z,1.30
2023-05-02T07:17:10.038Z,1.30
2023-05-02T07:19:56.757Z,1.10
2023-05-02T07:22:46.374Z,3.80
2023-05-02T07:25:33.786Z,1.40
2023-05-02T07:28:20.684Z,1.50
2023-05-02T07:31:07.916Z,1.10
2023-05-02T07:33:54.592Z,1.20
2023-05-02T07:36:41.491Z,1.30
2023-05-02T07:39:28.222Z,1.10
2023-05-02T07:42:15.384Z,1.20
2023-05-02T07:45:02.638Z,1.00
2023-05-02T07:47:49.598Z,2.60
2023-05-02T07:50:39.839Z,1.20
2023-05-02T07:53:26.792Z,1.20
2023-05-02T07:56:15.328Z,1.10
2023-05-02T07:59:03.638Z,1.10
2023-05-02T08:01:52.027Z,1.10
2023-05-02T08:04:41.137Z,1.90
2023-05-02T08:07:37.618Z,1.40
2023-05-02T08:10:24.516Z,1.20
2023-05-02T08:13:12.538Z,1.20
2023-05-02T08:16:02.115Z,1.10
2023-05-02T08:18:49.223Z,1.30
2023-05-02T08:21:38.611Z,2.70
2023-05-02T08:24:26.934Z,1.50
2023-05-02T08:27:16.141Z,0.90
2023-05-02T08:30:04.911Z,1.20
2023-05-02T08:32:51.937Z,1.00
2023-05-02T08:35:38.763Z,3.00
2023-05-02T08:38:25.447Z,1.70
2023-05-02T08:41:19.451Z,1.20
2023-05-02T08:44:15.476Z,1.00
2023-05-02T08:47:04.411Z,1.00
2023-05-02T08:49:56.765Z,1.60
2023-05-02T08:52:47.112Z,1.30
2023-05-02T08:55:39.863Z,1.10
2023-05-02T08:58:26.984Z,1.10
2023-05-02T09:01:17.390Z,1.00
2023-05-02T09:04:05.119Z,1.00
2023-05-02T09:06:53.213Z,13.10
2023-05-02T09:09:40.314Z,1.40
2023-05-02T09:15:59.347Z,1.20
2023-05-02T09:18:51.757Z,2.30
2023-05-02T09:29:41.029Z,1.70
2023-05-02T09:32:52.112Z,1.50
2023-05-02T09:36:37.848Z,5.20
2023-05-02T09:40:09.534Z,3.60
2023-05-02T09:42:57.926Z,1.50
2023-05-02T09:46:03.621Z,1.50
2023-05-02T09:49:27.643Z,1.80
2023-05-02T09:52:36.334Z,1.50
2023-05-02T09:55:23.266Z,2.10
2023-05-02T09:58:24.287Z,1.90
2023-05-02T10:01:21.764Z,2.10
2023-05-02T10:04:18.987Z,2.00
2023-05-02T10:07:06.850Z,2.10
2023-05-02T10:09:58.657Z,2.00
2023-05-02T10:12:52.924Z,1.70
2023-05-02T10:19:45.507Z,2.20
2023-05-02T10:22:39.288Z,1.90
2023-05-02T10:25:26.305Z,1.80
2023-05-02T10:28:14.572Z,2.90
2023-05-02T10:31:03.285Z,2.00
2023-05-02T10:38:43.767Z,1.80
2023-05-02T10:45:36.950Z,1.70
2023-05-02T10:48:42.231Z,1.90
2023-05-02T10:51:44.432Z,2.80
2023-05-02T10:54:31.085Z,2.20
2023-05-02T10:57:18.119Z,3.80
2023-05-02T11:04:06.681Z,2.70
2023-05-02T11:06:59.634Z,2.20
2023-05-02T11:09:51.198Z,3.30
2023-05-02T11:12:49.386Z,4.30
2023-05-02T11:15:42.813Z,2.20
2023-05-02T11:18:59.555Z,1.80
2023-05-02T11:21:51.370Z,2.00
2023-05-02T11:24:44.972Z,2.50
2023-05-02T11:27:38.589Z,2.30
2023-05-02T11:30:40.170Z,3.20
2023-05-02T11:33:28.992Z,2.00
2023-05-02T11:36:32.622Z,2.00
2023-05-02T11:39:21.322Z,2.20
2023-05-02T11:42:08.305Z,2.20
2023-05-02T11:44:59.726Z,2.40
2023-05-02T11:47:49.041Z,1.90
2023-05-02T11:51:03.556Z,2.50
2023-05-02T11:53:53.268Z,2.50
2023-05-02T11:56:40.837Z,2.30
2023-05-02T11:59:28.185Z,2.10
2023-05-02T12:02:16.575Z,2.40
2023-05-02T12:05:06.343Z,2.10
2023-05-02T12:07:53.752Z,2.30
2023-05-02T12:10:40.809Z,2.50
2023-05-02T12:13:31.750Z,2.20
2023-05-02T12:16:20.360Z,1.90
2023-05-02T12:19:07.782Z,2.00
2023-05-02T12:21:55.649Z,2.00
2023-05-02T12:24:43.722Z,2.00
2023-05-02T12:27:30.480Z,2.60
2023-05-02T12:30:28.556Z,2.10
2023-05-02T12:33:17.439Z,2.20
2023-05-02T12:36:08.459Z,1.90
2023-05-02T12:38:59.939Z,1.80
2023-05-02T12:41:48.490Z,1.80
2023-05-02T12:44:43.301Z,1.80
2023-05-02T12:47:30.158Z,1.90
2023-05-02T12:50:17.051Z,2.10
2023-05-02T12:53:04.063Z,1.90
2023-05-02T12:56:02.748Z,3.00
2023-05-02T12:58:49.529Z,1.80
2023-05-02T13:01:36.413Z,2.00
2023-05-02T13:04:41.411Z,1.60
2023-05-02T13:07:28.945Z,2.00
2023-05-02T13:10:18.262Z,1.70
2023-05-02T13:13:05.706Z,1.90
2023-05-02T13:15:52.611Z,10.30
2023-05-02T13:18:39.793Z,2.50
2023-05-02T13:21:27.099Z,9.40
2023-05-02T13:24:15.011Z,4.60
2023-05-02T13:27:02.239Z,3.50
2023-05-02T13:29:52.889Z,4.50
2023-05-02T13:32:42.719Z,1.90
2023-05-02T13:35:29.501Z,2.30
2023-05-02T13:38:16.364Z,3.30
2023-05-02T13:41:03.195Z,2.40
2023-05-02T13:43:51.091Z,4.80
2023-05-02T13:46:39.520Z,2.00
2023-05-02T13:49:26.831Z,1.70
2023-05-02T13:52:13.651Z,2.20
2023-05-02T13:55:00.478Z,1.60
2023-05-02T13:57:47.698Z,1.60
2023-05-02T14:00:34.722Z,1.90
2023-05-02T14:03:22.530Z,3.30
2023-05-02T14:06:09.484Z,1.60
2023-05-02T14:08:56.370Z,1.70
2023-05-02T14:11:44.498Z,1.80
2023-05-02T14:14:31.709Z,1.30
2023-05-02T14:17:18.470Z,24.10
2023-05-02T14:20:07.255Z,1.60
2023-05-02T14:22:56.682Z,1.90
2023-05-02T14:25:43.669Z,2.40
2023-05-02T14:28:32.382Z,2.30
2023-05-02T14:31:20.723Z,3.20
2023-05-02T14:34:09.067Z,2.30
2023-05-02T14:36:56.166Z,1.80
2023-05-02T14:39:47.448Z,2.20
2023-05-02T14:42:35.280Z,2.40
2023-05-02T14:45:22.408Z,1.70
2023-05-02T14:48:10.977Z,1.30
2023-05-02T14:51:01.525Z,2.10
2023-05-02T14:53:49.219Z,1.70
2023-05-02T14:56:36.244Z,1.80
2023-05-02T14:59:23.371Z,2.10
2023-05-02T15:02:11.307Z,1.70
2023-05-02T15:04:58.270Z,3.00
2023-05-02T15:07:45.095Z,1.50
2023-05-02T15:10:34.640Z,2.30
2023-05-02T15:13:22.017Z,2.20
2023-05-02T15:16:10.841Z,6.10
2023-05-02T15:18:57.747Z,21.40
2023-05-02T15:21:46.006Z,8.70
2023-05-02T15:24:34.199Z,26.80
2023-05-02T15:27:28.429Z,39.00
2023-05-02T15:30:17.853Z,135.80
2023-05-02T15:33:05.721Z,86.50
2023-05-02T15:35:58.645Z,7.90
2023-05-02T15:38:45.611Z,39.80
2023-05-02T15:41:32.734Z,22.80
2023-05-02T15:44:19.613Z,11.00
2023-05-02T15:47:06.624Z,13.50
2023-05-02T15:49:55.110Z,12.20
2023-05-02T15:52:42.078Z,8.30
2023-05-02T15:55:30.731Z,5.10
2023-05-02T15:58:19.862Z,6.20
2023-05-02T16:01:08.651Z,7.60
2023-05-02T16:03:56.437Z,5.00
2023-05-02T16:06:43.375Z,7.80
2023-05-02T16:09:31.324Z,6.60
2023-05-02T16:12:18.704Z,4.60
2023-05-02T16:15:06.459Z,5.50
2023-05-02T16:17:53.319Z,5.00
2023-05-02T16:20:52.368Z,5.40
2023-05-02T16:23:39.252Z,8.70
2023-05-02T16:29:13.214Z,3.70
2023-05-02T16:32:00.405Z,7.20
2023-05-02T16:34:47.385Z,6.30
2023-05-02T16:37:35.937Z,8.00
2023-05-02T16:40:22.846Z,9.20
2023-05-02T16:43:09.808Z,6.90
2023-05-02T16:46:04.353Z,7.00
2023-05-02T16:48:51.216Z,7.80
2023-05-02T16:51:39.591Z,6.40
2023-05-02T16:54:26.776Z,3.30
2023-05-02T16:57:18.481Z,4.60
2023-05-02T17:00:08.302Z,7.20
2023-05-02T17:02:57.141Z,4.30
2023-05-02T17:05:43.919Z,3.20
2023-05-02T17:08:30.767Z,3.90
2023-05-02T17:11:18.427Z,10.50
2023-05-02T17:14:05.590Z,8.20
2023-05-02T17:16:52.724Z,7.20
2023-05-02T17:19:39.696Z,9.10
2023-05-02T17:22:27.168Z,5.30
2023-05-02T17:25:14.557Z,4.40
2023-05-02T17:28:01.948Z,4.40
2023-05-02T17:30:48.896Z,4.50
2023-05-02T17:33:36.140Z,4.00
2023-05-02T17:36:25.651Z,5.00
2023-05-02T17:39:13.831Z,4.90
2023-05-02T17:42:01.272Z,4.50
2023-05-02T17:44:49.671Z,3.40
2023-05-02T17:47:37.245Z,3.30
2023-05-02T17:50:24.321Z,3.10
2023-05-02T17:53:11.495Z,2.60
2023-05-02T17:55:58.350Z,3.60
2023-05-02T17:58:47.312Z,3.80
2023-05-02T18:01:33.808Z,4.40
2023-05-02T18:04:20.654Z,9.40
2023-05-02T18:07:08.283Z,8.70
2023-05-02T18:09:55.602Z,8.90
2023-05-02T18:12:42.668Z,4.80
2023-05-02T18:15:31.084Z,3.20
2023-05-02T18:18:18.714Z,4.30
2023-05-02T18:21:06.325Z,3.80
2023-05-02T18:23:53.253Z,3.10
2023-05-02T18:26:40.481Z,3.30
2023-05-02T18:29:27.039Z,2.90
2023-05-02T18:32:16.851Z,3.00
2023-05-02T18:35:10.957Z,2.50
2023-05-02T18:37:57.949Z,2.50
2023-05-02T18:40:44.718Z,2.50
2023-05-02T18:43:33.632Z,2.20
2023-05-02T18:46:20.128Z,2.30
2023-05-02T18:49:09.376Z,2.20
2023-05-02T18:51:56.722Z,2.70
2023-05-02T18:54:43.425Z,2.50
2023-05-02T18:57:30.057Z,2.30
2023-05-02T19:03:30.824Z,1.90
2023-05-02T19:06:18.893Z,2.00
2023-05-02T19:09:05.924Z,2.10
2023-05-02T19:11:55.115Z,2.00
2023-05-02T19:14:42.182Z,2.00
2023-05-02T19:20:40.228Z,3.00
2023-05-02T19:23:27.033Z,4.30
2023-05-02T19:26:15.539Z,5.40
2023-05-02T19:29:03.223Z,5.20
2023-05-02T19:31:50.209Z,5.70
2023-05-02T19:34:37.318Z,6.10
2023-05-02T19:37:25.461Z,6.00
2023-05-02T19:40:13.165Z,4.00
2023-05-02T19:43:00.050Z,5.00
2023-05-02T19:45:46.704Z,4.70
2023-05-02T19:48:33.367Z,6.30
2023-05-02T19:51:33.976Z,5.70
2023-05-02T19:54:23.226Z,4.00
2023-05-02T19:57:10.060Z,3.80
2023-05-02T19:59:56.900Z,3.80
2023-05-02T20:02:44.655Z,6.80
2023-05-02T20:05:32.742Z,6.80
2023-05-02T20:08:21.458Z,5.10
2023-05-02T20:11:09.035Z,5.50
2023-05-02T20:13:55.972Z,6.20
2023-05-02T20:16:42.678Z,6.60
2023-05-02T20:19:32.275Z,6.60
2023-05-02T20:22:19.285Z,6.10
2023-05-02T20:25:09.924Z,4.80
2023-05-02T20:27:56.453Z,5.90
2023-05-02T20:30:44.273Z,6.20
2023-05-02T20:33:43.696Z,7.10
2023-05-02T20:36:32.520Z,6.70
2023-05-02T20:39:23.773Z,5.80
2023-05-02T20:45:00.049Z,7.00
2023-05-02T20:47:47.388Z,8.00
2023-05-02T20:50:34.777Z,7.20
2023-05-02T20:53:23.947Z,7.60
2023-05-02T20:56:10.802Z,7.00
2023-05-02T21:01:44.000Z,6.80
2023-05-02T21:04:31.223Z,6.70
2023-05-02T21:07:18.319Z,5.80
2023-05-02T21:10:08.103Z,6.00
2023-05-02T21:12:55.027Z,5.90
2023-05-02T21:15:42.183Z,7.40
2023-05-02T21:18:28.729Z,5.90
2023-05-02T21:21:16.731Z,4.80
2023-05-02T21:24:06.654Z,4.80
2023-05-02T21:26:53.820Z,9.40
2023-05-02T21:29:40.789Z,6.00
2023-05-02T21:32:27.868Z,6.50
2023-05-02T21:35:14.790Z,5.10
2023-05-02T21:38:02.580Z,4.70
2023-05-02T21:40:49.694Z,5.50
2023-05-02T21:43:39.838Z,3.90
2023-05-02T21:46:26.781Z,3.90
2023-05-02T21:49:14.056Z,4.70
2023-05-02T21:52:01.169Z,4.30
2023-05-02T21:54:50.172Z,4.50
2023-05-02T21:57:37.084Z,4.50
2023-05-02T22:00:24.431Z,5.90
2023-05-02T22:03:13.749Z,6.50
2023-05-02T22:06:06.402Z,4.90
2023-05-02T22:08:53.867Z,5.10
2023-05-02T22:11:40.921Z,5.50
2023-05-02T22:14:37.571Z,4.90
2023-05-02T22:17:32.905Z,5.00
2023-05-02T22:20:20.018Z,4.70
2023-05-02T22:23:07.449Z,3.80
2023-05-02T22:25:54.388Z,4.40
2023-05-02T22:28:41.316Z,3.20
2023-05-02T22:31:28.743Z,3.30
2023-05-02T22:34:15.800Z,3.70
2023-05-02T22:37:02.760Z,3.80
2023-05-02T22:39:49.830Z,3.30
2023-05-02T22:42:36.653Z,3.20
2023-05-02T22:45:23.809Z,3.30
2023-05-02T22:48:10.827Z,3.30
2023-05-02T22:50:57.947Z,3.70
2023-05-02T22:53:44.511Z,3.30
2023-05-02T22:56:31.591Z,2.90
2023-05-02T22:59:18.676Z,3.20
2023-05-02T23:02:05.482Z,3.50
2023-05-02T23:04:52.510Z,3.40
2023-05-02T23:07:39.356Z,3.40
2023-05-02T23:10:26.390Z,3.70
2023-05-02T23:13:13.334Z,3.50
2023-05-02T23:16:00.458Z,3.40
2023-05-02T23:18:47.665Z,3.60
2023-05-02T23:21:34.673Z,3.20
2023-05-02T23:24:21.793Z,3.80
2023-05-02T23:27:09.888Z,3.60
2023-05-02T23:29:56.464Z,3.90
2023-05-02T23:32:43.287Z,4.30
2023-05-02T23:35:32.088Z,4.20
2023-05-02T23:38:19.009Z,4.40
2023-05-02T23:41:05.969Z,4.00
2023-05-02T23:43:52.741Z,3.70
2023-05-02T23:49:28.092Z,4.10
2023-05-02T23:52:15.240Z,4.30
2023-05-02T23:55:02.576Z,3.40
2023-05-02T23:57:49.391Z,3.40
